Time;durP1;ratioP1;P1;durP2;ratioP2;P2;SDS_P1;SDS_P2;PMS_P1;PMS_P2;Temp;Humidity;BMP_temperature;BMP_pressure;BME280_temperature;BME280_humidity;BME280_pressure;Samples;Min_cycle;Max_cycle;Signal;HPM_P1;HPM_P2
2021/12/30 00:01:28;;;;;;;7.45;4.05;;;-5.30;99.90;;;;;;4867922;29;20517;-78
2021/12/30 00:03:56;;;;;;;7.07;4.50;;;-5.40;99.90;;;;;;4868417;29;20561;-76
2021/12/30 00:06:24;;;;;;;7.07;4.22;;;-5.30;99.90;;;;;;4876438;29;20112;-76
2021/12/30 00:08:53;;;;;;;6.10;3.75;;;-5.40;99.90;;;;;;4878685;29;20079;-75
2021/12/30 00:11:20;;;;;;;8.55;4.65;;;-5.40;99.90;;;;;;4876832;29;20057;-77
2021/12/30 00:13:48;;;;;;;8.80;4.53;;;-5.40;99.90;;;;;;4872920;29;20045;-77
2021/12/30 00:16:18;;;;;;;8.02;4.45;;;-5.40;99.90;;;;;;4876477;29;20071;-75
2021/12/30 00:18:46;;;;;;;8.10;4.70;;;-5.40;99.90;;;;;;4876169;29;20057;-77
2021/12/30 00:21:14;;;;;;;9.60;4.22;;;-5.40;99.90;;;;;;4872380;29;20045;-76
2021/12/30 00:23:42;;;;;;;10.95;5.40;;;-5.50;99.90;;;;;;4863049;29;20092;-76
2021/12/30 00:26:10;;;;;;;7.72;4.55;;;-5.50;99.90;;;;;;4876574;29;20052;-76
2021/12/30 00:28:38;;;;;;;7.00;4.20;;;-5.50;99.90;;;;;;4876708;29;20053;-76
2021/12/30 00:31:06;;;;;;;6.35;4.18;;;-5.50;99.90;;;;;;4877248;29;20053;-76
2021/12/30 00:33:35;;;;;;;5.85;3.67;;;-5.50;99.90;;;;;;4875494;29;20053;-76
2021/12/30 00:36:06;;;;;;;8.15;4.28;;;-5.40;99.90;;;;;;4877378;29;20065;-76
2021/12/30 00:38:33;;;;;;;9.88;4.90;;;-5.40;99.90;;;;;;4876222;29;20494;-76
2021/12/30 00:41:01;;;;;;;10.80;4.65;;;-5.40;99.90;;;;;;4875368;29;20577;-75
2021/12/30 00:43:29;;;;;;;7.30;4.72;;;-5.40;99.90;;;;;;4877238;29;20421;-76
2021/12/30 00:45:56;;;;;;;8.27;5.38;;;-5.40;99.90;;;;;;4877146;29;20157;-76
2021/12/30 00:48:23;;;;;;;8.93;4.55;;;-5.40;99.90;;;;;;4876270;29;20088;-78
2021/12/30 00:50:53;;;;;;;11.25;4.68;;;-5.40;99.90;;;;;;4875813;29;20088;-77
2021/12/30 00:53:21;;;;;;;5.47;4.30;;;-5.40;99.90;;;;;;4876488;29;20067;-78
2021/12/30 00:55:48;;;;;;;7.53;4.70;;;-5.40;99.90;;;;;;4876657;29;20400;-78
2021/12/30 00:58:16;;;;;;;11.93;4.80;;;-5.40;99.90;;;;;;4875811;29;20136;-77
2021/12/30 01:00:46;;;;;;;8.80;4.47;;;-5.50;99.90;;;;;;4875555;29;20530;-77
2021/12/30 01:03:15;;;;;;;7.63;4.80;;;-5.50;99.90;;;;;;4873945;29;20065;-78
2021/12/30 01:05:44;;;;;;;8.30;4.63;;;-5.50;99.90;;;;;;4875967;29;20049;-77
2021/12/30 01:08:16;;;;;;;9.05;4.78;;;-5.50;99.90;;;;;;4874683;29;20144;-78
2021/12/30 01:10:45;;;;;;;12.65;5.10;;;-5.50;99.90;;;;;;4874413;29;20501;-78
2021/12/30 01:13:21;;;;;;;10.20;5.43;;;-5.50;99.90;;;;;;4877002;29;20586;-77
2021/12/30 01:15:57;;;;;;;7.82;5.00;;;-5.50;99.90;;;;;;4841930;29;20045;-77
2021/12/30 01:18:35;;;;;;;9.77;4.85;;;-5.50;99.90;;;;;;4877088;29;20060;-77
2021/12/30 01:21:06;;;;;;;8.88;4.50;;;-5.40;99.90;;;;;;4875392;29;20251;-76
2021/12/30 01:23:35;;;;;;;7.35;4.63;;;-5.40;99.90;;;;;;4881741;29;20128;-75
2021/12/30 01:26:03;;;;;;;9.10;4.53;;;-5.40;99.90;;;;;;4873168;29;20084;-75
2021/12/30 01:28:31;;;;;;;6.65;4.35;;;-5.40;99.90;;;;;;4876426;29;20057;-76
2021/12/30 01:30:59;;;;;;;8.43;4.85;;;-5.40;99.90;;;;;;4877000;29;20045;-76
2021/12/30 01:33:27;;;;;;;7.30;4.40;;;-5.50;99.90;;;;;;4876842;29;20049;-76
2021/12/30 01:35:54;;;;;;;7.63;4.75;;;-5.40;99.90;;;;;;4875278;29;20434;-76
2021/12/30 01:38:21;;;;;;;9.13;4.80;;;-5.50;99.90;;;;;;4874392;29;20420;-76
2021/12/30 01:40:54;;;;;;;7.70;4.47;;;-5.50;99.90;;;;;;4877183;29;20085;-75
2021/12/30 01:43:22;;;;;;;8.48;4.78;;;-5.50;99.90;;;;;;4872215;29;20105;-75
2021/12/30 01:45:51;;;;;;;8.07;4.25;;;-5.40;99.90;;;;;;4858700;29;20060;-75
2021/12/30 01:48:19;;;;;;;9.32;4.97;;;-5.50;99.90;;;;;;4856541;29;20067;-75
2021/12/30 01:50:46;;;;;;;7.85;4.47;;;-5.50;99.90;;;;;;4859524;29;20433;-75
2021/12/30 01:53:14;;;;;;;6.53;4.22;;;-5.50;99.90;;;;;;4873082;29;20084;-75
2021/12/30 01:55:43;;;;;;;7.25;5.00;;;-5.50;99.90;;;;;;4858700;29;20643;-76
2021/12/30 01:58:12;;;;;;;8.25;4.43;;;-5.50;99.90;;;;;;4858471;29;20053;-74
2021/12/30 02:00:44;;;;;;;7.95;4.60;;;-5.50;99.90;;;;;;4874571;29;20048;-75
2021/12/30 02:03:13;;;;;;;6.75;4.70;;;-5.50;99.90;;;;;;4841348;29;20068;-75
2021/12/30 02:05:42;;;;;;;8.32;4.40;;;-5.50;99.90;;;;;;4875817;29;20063;-75
2021/12/30 02:08:14;;;;;;;6.30;3.75;;;-5.50;99.90;;;;;;4841811;29;20089;-76
2021/12/30 02:10:43;;;;;;;8.55;5.45;;;-5.50;99.90;;;;;;4871562;29;20456;-75
2021/12/30 02:13:13;;;;;;;7.18;4.38;;;-5.40;99.90;;;;;;4876259;29;20084;-77
2021/12/30 02:15:41;;;;;;;6.13;4.22;;;-5.40;99.90;;;;;;4868446;29;20472;-76
2021/12/30 02:18:08;;;;;;;7.05;4.47;;;-5.40;99.90;;;;;;4856683;29;20116;-75
2021/12/30 02:20:50;;;;;;;8.20;5.07;;;-5.50;99.90;;;;;;4857042;29;20049;-76
2021/12/30 02:23:22;;;;;;;9.45;4.70;;;-5.50;99.90;;;;;;4868058;29;20057;-76
2021/12/30 02:25:52;;;;;;;8.88;5.47;;;-5.50;99.90;;;;;;4870352;29;20050;-76
2021/12/30 02:28:23;;;;;;;6.72;4.43;;;-5.50;99.90;;;;;;4872689;29;20514;-76
2021/12/30 02:30:53;;;;;;;8.52;4.45;;;-5.60;99.90;;;;;;4874506;29;20422;-76
2021/12/30 02:33:21;;;;;;;8.88;4.60;;;-5.50;99.90;;;;;;4875845;29;20049;-76
2021/12/30 02:35:51;;;;;;;7.15;4.28;;;-5.50;99.90;;;;;;4872347;29;20044;-75
2021/12/30 02:38:20;;;;;;;8.02;4.07;;;-5.40;99.90;;;;;;4869087;29;20356;-76
2021/12/30 02:40:50;;;;;;;8.13;4.22;;;-5.40;99.90;;;;;;4877908;29;20100;-76
2021/12/30 02:43:20;;;;;;;8.25;4.90;;;-5.40;99.90;;;;;;4878856;29;20061;-75
2021/12/30 02:45:49;;;;;;;8.20;5.20;;;-5.50;99.90;;;;;;4878929;29;20594;-75
2021/12/30 02:48:20;;;;;;;9.27;4.78;;;-5.60;99.90;;;;;;4877846;29;20064;-75
2021/12/30 02:50:50;;;;;;;6.80;4.30;;;-5.50;99.90;;;;;;4877223;29;20533;-75
2021/12/30 02:53:19;;;;;;;9.95;5.30;;;-5.50;99.90;;;;;;4879687;29;20128;-76
2021/12/30 02:55:48;;;;;;;8.68;4.70;;;-5.50;99.90;;;;;;4878967;29;20482;-76
2021/12/30 02:58:16;;;;;;;8.52;4.43;;;-5.60;99.90;;;;;;4874736;29;20081;-75
2021/12/30 03:00:45;;;;;;;8.48;5.05;;;-5.60;99.90;;;;;;4878508;29;20057;-77
2021/12/30 03:03:18;;;;;;;11.88;5.30;;;-5.60;99.90;;;;;;4877120;29;20053;-76
2021/12/30 03:05:46;;;;;;;9.15;5.15;;;-5.60;99.90;;;;;;4876231;29;20053;-76
2021/12/30 03:08:15;;;;;;;9.63;4.90;;;-5.50;99.90;;;;;;4863024;29;20514;-76
2021/12/30 03:10:43;;;;;;;9.85;5.18;;;-5.60;99.90;;;;;;4877349;29;20060;-76
2021/12/30 03:13:14;;;;;;;8.38;5.30;;;-5.60;99.90;;;;;;4873440;29;20566;-76
2021/12/30 03:15:44;;;;;;;11.02;5.32;;;-5.60;99.90;;;;;;4865406;29;20088;-75
2021/12/30 03:18:11;;;;;;;10.70;5.50;;;-5.60;99.90;;;;;;4873292;29;20057;-77
2021/12/30 03:20:39;;;;;;;7.97;5.00;;;-5.70;99.90;;;;;;4866682;29;20053;-78
2021/12/30 03:23:06;;;;;;;7.75;4.47;;;-5.60;99.90;;;;;;4878454;29;20057;-77
2021/12/30 03:25:35;;;;;;;7.97;5.25;;;-5.60;99.90;;;;;;4876320;29;20045;-76
2021/12/30 03:28:03;;;;;;;9.98;5.10;;;-5.60;99.90;;;;;;4878388;29;20080;-77
2021/12/30 03:30:32;;;;;;;9.73;5.43;;;-5.60;99.90;;;;;;4878007;29;20144;-78
2021/12/30 03:33:00;;;;;;;7.70;4.57;;;-5.60;99.90;;;;;;4875662;29;20076;-78
2021/12/30 03:35:27;;;;;;;9.25;5.85;;;-5.50;99.90;;;;;;4869504;29;20132;-78
2021/12/30 03:37:56;;;;;;;9.82;6.15;;;-5.50;99.90;;;;;;4877114;29;20049;-76
2021/12/30 03:40:24;;;;;;;13.35;6.45;;;-5.60;99.90;;;;;;4856205;29;20136;-76
2021/12/30 03:42:53;;;;;;;7.85;4.65;;;-5.60;99.90;;;;;;4878088;29;20488;-76
2021/12/30 03:45:21;;;;;;;8.15;5.07;;;-5.70;99.90;;;;;;4876115;29;20597;-77
2021/12/30 03:47:51;;;;;;;8.77;5.15;;;-5.70;99.90;;;;;;4876521;29;20045;-76
2021/12/30 03:50:23;;;;;;;9.35;5.28;;;-5.80;99.90;;;;;;4875730;29;20061;-77
2021/12/30 03:52:54;;;;;;;8.20;5.20;;;-5.70;99.90;;;;;;4876440;29;20109;-76
2021/12/30 03:55:23;;;;;;;11.63;6.30;;;-5.80;99.90;;;;;;4857624;29;20143;-77
2021/12/30 03:57:54;;;;;;;11.88;5.93;;;-5.90;99.90;;;;;;4882975;29;20049;-78
2021/12/30 04:00:24;;;;;;;9.23;5.32;;;-5.90;99.90;;;;;;4862006;29;20071;-77
2021/12/30 04:02:52;;;;;;;10.75;5.95;;;-5.90;99.90;;;;;;4858006;29;20143;-78
2021/12/30 04:05:20;;;;;;;10.55;6.03;;;-5.80;99.90;;;;;;4877700;29;20100;-79
2021/12/30 04:07:49;;;;;;;8.63;5.10;;;-5.80;99.90;;;;;;4877343;29;20510;-78
2021/12/30 04:10:21;;;;;;;8.85;5.28;;;-5.80;99.90;;;;;;4860838;29;20057;-77
2021/12/30 04:12:51;;;;;;;11.18;5.78;;;-5.80;99.90;;;;;;4855818;29;20961;-79
2021/12/30 04:15:20;;;;;;;9.70;6.15;;;-5.80;99.90;;;;;;4853658;29;20050;-77
2021/12/30 04:17:48;;;;;;;12.60;5.68;;;-5.80;99.90;;;;;;4874752;29;20049;-77
2021/12/30 04:20:17;;;;;;;9.13;5.50;;;-5.80;99.90;;;;;;4877399;29;20085;-78
2021/12/30 04:22:45;;;;;;;11.02;5.75;;;-5.80;99.90;;;;;;4870229;29;20057;-78
2021/12/30 04:25:15;;;;;;;12.68;6.30;;;-5.80;99.90;;;;;;4857264;29;20061;-77
2021/12/30 04:27:45;;;;;;;10.40;5.63;;;-5.90;99.90;;;;;;4876972;29;20053;-79
2021/12/30 04:30:15;;;;;;;9.57;5.25;;;-6.00;99.90;;;;;;4875603;29;20045;-79
2021/12/30 04:32:45;;;;;;;12.88;6.60;;;-5.90;99.90;;;;;;4875849;29;20041;-77
2021/12/30 04:35:14;;;;;;;10.43;5.82;;;-6.00;99.90;;;;;;4875706;29;20084;-77
2021/12/30 04:37:42;;;;;;;9.80;5.93;;;-6.00;99.90;;;;;;4876959;29;20120;-78
2021/12/30 04:40:12;;;;;;;11.20;5.80;;;-6.00;99.90;;;;;;4858178;29;20422;-79
2021/12/30 04:42:40;;;;;;;10.88;6.15;;;-6.10;99.90;;;;;;4877334;29;20056;-78
2021/12/30 04:45:09;;;;;;;13.25;6.03;;;-6.00;99.90;;;;;;4859814;29;20450;-74
2021/12/30 04:47:38;;;;;;;10.32;5.72;;;-6.00;99.90;;;;;;4873860;29;20076;-76
2021/12/30 04:50:10;;;;;;;11.43;6.35;;;-6.00;99.90;;;;;;4872885;29;20048;-75
2021/12/30 04:52:37;;;;;;;11.75;5.97;;;-6.00;99.90;;;;;;4875279;29;20057;-75
2021/12/30 04:55:07;;;;;;;12.77;5.97;;;-5.90;99.90;;;;;;4874620;29;20061;-77
2021/12/30 04:57:35;;;;;;;11.80;6.18;;;-6.00;99.90;;;;;;4877539;29;20105;-77
2021/12/30 05:00:04;;;;;;;10.70;6.25;;;-6.00;99.90;;;;;;4875301;29;20045;-76
2021/12/30 05:02:44;;;;;;;13.90;6.13;;;-6.00;99.90;;;;;;4875723;29;20060;-76
2021/12/30 05:05:13;;;;;;;11.70;5.75;;;-6.00;99.90;;;;;;4861715;29;20121;-75
2021/12/30 05:07:40;;;;;;;10.05;5.40;;;-5.90;99.90;;;;;;4870508;29;20045;-74
2021/12/30 05:10:09;;;;;;;11.32;6.10;;;-5.90;99.90;;;;;;4875550;29;20083;-76
2021/12/30 05:12:36;;;;;;;12.00;5.32;;;-6.00;99.90;;;;;;4870647;29;20140;-76
2021/12/30 05:15:04;;;;;;;11.18;6.43;;;-6.00;99.90;;;;;;4872912;29;20514;-75
2021/12/30 05:17:32;;;;;;;9.63;6.22;;;-6.00;99.90;;;;;;4868776;29;20152;-75
2021/12/30 05:19:59;;;;;;;12.63;6.15;;;-6.00;99.90;;;;;;4877049;29;20060;-75
2021/12/30 05:22:28;;;;;;;10.63;5.68;;;-6.00;99.90;;;;;;4871531;29;20041;-75
2021/12/30 05:24:55;;;;;;;10.50;6.18;;;-6.00;99.90;;;;;;4870068;29;20422;-76
2021/12/30 05:27:23;;;;;;;13.15;5.75;;;-6.00;99.90;;;;;;4873867;29;20060;-76
2021/12/30 05:29:50;;;;;;;14.80;6.47;;;-6.00;99.90;;;;;;4857562;29;20049;-76
2021/12/30 05:32:17;;;;;;;14.02;6.60;;;-6.00;99.90;;;;;;4881861;29;20596;-76
2021/12/30 05:34:45;;;;;;;15.68;6.72;;;-6.00;99.90;;;;;;4872055;29;20053;-75
2021/12/30 05:37:12;;;;;;;10.20;5.95;;;-6.00;99.90;;;;;;4874194;29;20699;-77
2021/12/30 05:39:42;;;;;;;12.98;6.53;;;-6.10;99.90;;;;;;4875073;29;20057;-75
2021/12/30 05:42:10;;;;;;;14.93;6.88;;;-6.10;99.90;;;;;;4875609;29;20088;-76
2021/12/30 05:44:38;;;;;;;10.85;5.78;;;-6.10;99.90;;;;;;4872918;29;20129;-76
2021/12/30 05:47:05;;;;;;;12.95;6.60;;;-6.10;99.90;;;;;;4856761;29;20406;-77
2021/12/30 05:49:33;;;;;;;15.95;6.95;;;-6.00;99.90;;;;;;4873459;29;20056;-78
2021/12/30 05:52:00;;;;;;;12.65;6.32;;;-6.00;99.90;;;;;;4875105;29;20537;-78
2021/12/30 05:54:28;;;;;;;12.38;6.97;;;-6.00;99.90;;;;;;4873693;29;20147;-79
2021/12/30 05:56:56;;;;;;;13.90;6.15;;;-6.10;99.90;;;;;;4861388;29;20055;-80
2021/12/30 05:59:24;;;;;;;12.63;6.93;;;-6.10;99.90;;;;;;4858151;29;20160;-76
2021/12/30 06:01:52;;;;;;;12.60;6.72;;;-6.10;99.90;;;;;;4868302;29;20148;-77
2021/12/30 06:04:20;;;;;;;10.88;6.10;;;-6.20;99.90;;;;;;4870643;29;20164;-76
2021/12/30 06:06:47;;;;;;;12.23;6.53;;;-6.20;99.90;;;;;;4875391;29;20109;-75
2021/12/30 06:09:21;;;;;;;13.60;6.82;;;-6.10;99.90;;;;;;4865435;29;20082;-81
2021/12/30 06:11:49;;;;;;;8.85;5.82;;;-6.20;99.90;;;;;;4849740;29;20056;-81
2021/12/30 06:14:18;;;;;;;9.75;5.45;;;-6.20;99.90;;;;;;4878613;29;20132;-81
2021/12/30 06:16:45;;;;;;;13.10;7.60;;;-6.20;99.90;;;;;;4863905;29;20411;-79
2021/12/30 06:19:13;;;;;;;13.90;7.15;;;-6.10;99.90;;;;;;4871758;29;20407;-76
2021/12/30 06:21:40;;;;;;;13.38;5.75;;;-6.10;99.90;;;;;;4878851;29;20072;-78
2021/12/30 06:24:08;;;;;;;11.50;6.88;;;-6.10;99.90;;;;;;4878198;29;20053;-78
2021/12/30 06:26:36;;;;;;;14.10;7.28;;;-6.10;99.90;;;;;;4874538;29;20140;-78
2021/12/30 06:29:04;;;;;;;15.68;7.53;;;-6.20;99.90;;;;;;4857666;29;20050;-80
2021/12/30 06:31:33;;;;;;;14.20;6.78;;;-6.20;99.90;;;;;;4866535;29;20049;-82
2021/12/30 06:34:01;;;;;;;11.40;6.97;;;-6.20;99.90;;;;;;4878354;29;20096;-80
2021/12/30 06:36:29;;;;;;;17.92;7.25;;;-6.20;99.90;;;;;;4879406;29;20056;-77
2021/12/30 06:38:57;;;;;;;15.50;7.97;;;-6.10;99.90;;;;;;4847352;29;20052;-78
2021/12/30 06:41:25;;;;;;;14.10;7.80;;;-6.10;99.90;;;;;;4877887;29;20099;-77
2021/12/30 06:43:52;;;;;;;11.10;6.70;;;-6.00;99.90;;;;;;4878006;29;20053;-81
2021/12/30 06:46:21;;;;;;;15.82;8.15;;;-6.10;99.90;;;;;;4860402;29;20058;-78
2021/12/30 06:48:50;;;;;;;14.25;6.30;;;-6.10;99.90;;;;;;4867286;29;20064;-79
2021/12/30 06:51:21;;;;;;;15.52;7.60;;;-6.20;99.90;;;;;;4877725;29;20538;-78
2021/12/30 06:53:49;;;;;;;14.40;7.35;;;-6.20;99.90;;;;;;4863051;29;20165;-79
2021/12/30 06:56:17;;;;;;;14.70;7.50;;;-6.20;99.90;;;;;;4879414;29;20045;-82
2021/12/30 06:58:44;;;;;;;19.48;7.72;;;-6.20;99.90;;;;;;4873507;29;20064;-77
2021/12/30 07:01:12;;;;;;;16.38;7.38;;;-6.20;99.90;;;;;;4870217;29;20129;-85
2021/12/30 07:03:42;;;;;;;14.75;7.20;;;-6.20;99.90;;;;;;4865772;29;20139;-80
2021/12/30 07:06:13;;;;;;;12.52;6.97;;;-6.30;99.90;;;;;;4860925;29;20154;-79
2021/12/30 07:08:41;;;;;;;12.55;6.35;;;-6.30;99.90;;;;;;4867181;29;20455;-78
2021/12/30 07:11:09;;;;;;;15.80;7.25;;;-6.30;99.90;;;;;;4872155;29;20041;-78
2021/12/30 07:13:37;;;;;;;13.07;6.60;;;-6.20;99.90;;;;;;4852174;29;20135;-82
2021/12/30 07:16:06;;;;;;;13.13;7.07;;;-6.10;99.90;;;;;;4862627;29;20411;-81
2021/12/30 07:18:33;;;;;;;13.00;7.50;;;-6.10;99.90;;;;;;4869719;29;20748;-82
2021/12/30 07:21:04;;;;;;;11.20;6.95;;;-6.10;99.90;;;;;;4857632;29;20050;-78
2021/12/30 07:23:34;;;;;;;14.95;6.97;;;-6.10;99.90;;;;;;4874456;29;20097;-78
2021/12/30 07:26:01;;;;;;;14.65;7.40;;;-6.10;99.90;;;;;;4859118;29;20053;-75
2021/12/30 07:28:28;;;;;;;14.15;7.55;;;-6.10;99.90;;;;;;4860529;29;20049;-77
2021/12/30 07:30:56;;;;;;;15.23;7.20;;;-6.10;99.90;;;;;;4879338;29;20570;-81
2021/12/30 07:33:24;;;;;;;21.13;7.50;;;-6.10;99.90;;;;;;4874116;29;20056;-82
2021/12/30 07:35:51;;;;;;;14.82;6.88;;;-6.10;99.90;;;;;;4877984;29;20045;-81
2021/12/30 07:38:19;;;;;;;14.35;7.53;;;-6.20;99.90;;;;;;4879627;29;20064;-81
2021/12/30 07:40:48;;;;;;;16.02;8.02;;;-6.20;99.90;;;;;;4878381;29;20455;-82
2021/12/30 07:43:17;;;;;;;18.33;7.97;;;-6.20;99.90;;;;;;4861221;29;20057;-81
2021/12/30 07:45:44;;;;;;;19.63;7.38;;;-6.30;99.90;;;;;;4855817;29;20053;-82
2021/12/30 07:48:12;;;;;;;17.70;7.32;;;-6.30;99.90;;;;;;4878419;29;20049;-83
2021/12/30 07:50:39;;;;;;;18.45;7.45;;;-6.30;99.90;;;;;;4854832;29;20489;-85
2021/12/30 07:53:10;;;;;;;17.75;8.23;;;-6.20;99.90;;;;;;4876909;29;20134;-84
2021/12/30 07:55:42;;;;;;;18.60;7.88;;;-6.10;99.90;;;;;;4872153;29;20459;-83
2021/12/30 07:58:11;;;;;;;14.43;7.75;;;-6.10;99.90;;;;;;4869370;29;20057;-80
2021/12/30 08:00:38;;;;;;;14.30;7.20;;;-6.20;99.90;;;;;;4877446;29;20045;-82
2021/12/30 08:03:06;;;;;;;14.05;7.25;;;-6.10;99.90;;;;;;4876594;29;20055;-79
2021/12/30 08:05:33;;;;;;;15.10;7.85;;;-6.20;99.90;;;;;;4877884;29;20431;-80
2021/12/30 08:08:01;;;;;;;15.68;7.93;;;-6.20;99.90;;;;;;4878457;29;20136;-78
2021/12/30 08:10:29;;;;;;;19.85;9.27;;;-6.20;99.90;;;;;;4861051;29;20057;-75
2021/12/30 08:12:57;;;;;;;17.25;8.05;;;-6.20;99.90;;;;;;4876942;29;20057;-76
2021/12/30 08:15:26;;;;;;;14.38;7.50;;;-6.20;99.90;;;;;;4869812;29;20045;-75
2021/12/30 08:17:54;;;;;;;17.63;7.75;;;-6.20;99.90;;;;;;4878063;29;20076;-75
2021/12/30 08:20:23;;;;;;;16.55;9.15;;;-6.20;99.90;;;;;;4877831;29;20049;-78
2021/12/30 08:22:52;;;;;;;20.38;9.05;;;-6.30;99.90;;;;;;4871532;29;20068;-74
2021/12/30 08:25:20;;;;;;;15.35;7.88;;;-6.30;99.90;;;;;;4870557;29;20065;-75
2021/12/30 08:27:48;;;;;;;17.30;8.02;;;-6.30;99.90;;;;;;4862135;29;20052;-74
2021/12/30 08:30:19;;;;;;;18.85;9.00;;;-6.30;99.90;;;;;;4887864;29;20054;-74
2021/12/30 08:32:48;;;;;;;20.02;8.23;;;-6.40;99.90;;;;;;4866321;29;20517;-73
2021/12/30 08:35:20;;;;;;;19.42;7.95;;;-6.40;99.90;;;;;;4857417;29;20491;-74
2021/12/30 08:37:50;;;;;;;14.30;7.53;;;-6.50;99.90;;;;;;4874754;29;20299;-75
2021/12/30 08:40:19;;;;;;;17.50;7.82;;;-6.40;99.90;;;;;;4866063;29;20546;-75
2021/12/30 08:42:47;;;;;;;22.85;9.77;;;-6.30;99.90;;;;;;4874182;29;20057;-78
2021/12/30 08:45:15;;;;;;;16.77;9.07;;;-6.30;99.90;;;;;;4875218;29;20076;-80
2021/12/30 08:47:44;;;;;;;15.57;8.40;;;-6.40;99.90;;;;;;4870600;29;20041;-77
2021/12/30 08:50:15;;;;;;;17.65;8.88;;;-6.30;99.90;;;;;;4869638;29;20088;-81
2021/12/30 08:52:45;;;;;;;18.15;7.53;;;-6.40;99.90;;;;;;4872648;29;20470;-77
2021/12/30 08:55:14;;;;;;;18.05;9.30;;;-6.40;99.90;;;;;;4877344;29;20510;-80
2021/12/30 08:57:42;;;;;;;19.50;9.20;;;-6.50;99.90;;;;;;4870239;29;20053;-80
2021/12/30 09:00:15;;;;;;;18.25;7.85;;;-6.50;99.90;;;;;;4869126;29;20136;-80
2021/12/30 09:02:43;;;;;;;;;;;-6.60;99.90;;;;;;4858338;29;20140;-83
2021/12/30 09:05:13;;;;;;;16.00;7.38;;;-6.60;99.90;;;;;;4871094;29;19928;-83
2021/12/30 09:07:42;;;;;;;17.10;8.85;;;-6.60;99.90;;;;;;4836168;29;20061;-81
2021/12/30 09:10:13;;;;;;;19.92;9.85;;;-6.70;99.90;;;;;;4833013;29;20459;-81
2021/12/30 09:12:43;;;;;;;16.35;8.63;;;-6.70;99.90;;;;;;4830001;29;20053;-81
2021/12/30 09:15:13;;;;;;;19.25;8.63;;;-6.70;99.90;;;;;;4830909;29;20144;-81
2021/12/30 09:17:41;;;;;;;17.40;7.60;;;-6.80;99.90;;;;;;4832195;29;20058;-80
2021/12/30 09:20:12;;;;;;;11.20;6.97;;;-6.80;99.90;;;;;;4834514;29;20046;-77
2021/12/30 09:22:44;;;;;;;17.65;8.50;;;-6.80;99.90;;;;;;4834791;29;20644;-76
2021/12/30 09:25:12;;;;;;;18.75;8.23;;;-6.70;99.90;;;;;;4824711;29;20521;-82
2021/12/30 09:27:45;;;;;;;12.90;7.75;;;-6.60;99.90;;;;;;4835177;29;20054;-75
2021/12/30 09:30:15;;;;;;;11.30;6.30;;;-6.60;99.90;;;;;;4851308;29;20051;-75
2021/12/30 09:32:44;;;;;;;13.75;6.97;;;-6.70;99.90;;;;;;4834148;29;20061;-76
2021/12/30 09:35:15;;;;;;;16.58;7.28;;;-6.80;99.90;;;;;;4838471;29;20053;-76
2021/12/30 09:37:44;;;;;;;18.63;8.63;;;-6.90;99.90;;;;;;4835480;29;20053;-75
2021/12/30 09:40:15;;;;;;;17.73;8.00;;;-6.90;99.90;;;;;;4835599;29;20098;-76
2021/12/30 09:42:45;;;;;;;21.10;8.48;;;-6.90;99.90;;;;;;4838978;29;20456;-75
2021/12/30 09:45:14;;;;;;;18.80;8.77;;;-6.90;99.90;;;;;;4829704;29;20046;-77
2021/12/30 09:47:45;;;;;;;18.67;8.80;;;-7.00;99.90;;;;;;4841150;29;20046;-77
2021/12/30 09:50:15;;;;;;;17.35;8.32;;;-7.00;99.90;;;;;;4842947;29;20058;-82
2021/12/30 09:52:44;;;;;;;15.93;7.90;;;-7.00;99.90;;;;;;4842417;29;20131;-80
2021/12/30 09:55:12;;;;;;;20.85;9.90;;;-7.00;99.90;;;;;;4840978;29;20054;-79
2021/12/30 09:57:40;;;;;;;15.77;8.57;;;-7.00;99.90;;;;;;4843916;29;20068;-77
2021/12/30 10:00:14;;;;;;;14.52;8.57;;;-7.00;99.90;;;;;;4840852;29;20057;-79
2021/12/30 10:02:46;;;;;;;18.50;8.38;;;-7.00;99.90;;;;;;4840254;29;20050;-77
2021/12/30 10:05:21;;;;;;;19.13;8.00;;;-7.00;99.90;;;;;;4827282;29;20054;-80
2021/12/30 10:07:49;;;;;;;21.33;8.13;;;-6.90;99.90;;;;;;4843629;29;20061;-79
2021/12/30 10:10:32;;;;;;;21.50;9.07;;;-6.80;99.90;;;;;;4841964;29;20078;-82
2021/12/30 10:13:02;;;;;;;16.23;8.45;;;-6.80;99.90;;;;;;4827219;29;20058;-80
2021/12/30 10:15:42;;;;;;;19.05;9.30;;;-6.90;99.90;;;;;;4843341;29;20058;-79
2021/12/30 10:18:10;;;;;;;15.15;7.30;;;-6.80;99.90;;;;;;4842495;29;20086;-80
2021/12/30 10:20:40;;;;;;;19.48;10.02;;;-6.90;99.90;;;;;;4833494;29;20050;-79
2021/12/30 10:23:17;;;;;;;17.55;8.18;;;-6.80;99.90;;;;;;4831783;29;20057;-78
2021/12/30 10:25:47;;;;;;;18.90;8.52;;;-6.90;99.90;;;;;;4839315;29;20049;-83
2021/12/30 10:28:30;;;;;;;17.55;8.98;;;-6.90;99.90;;;;;;4839332;29;20091;-81
2021/12/30 10:31:02;;;;;;;19.83;7.82;;;-6.90;99.90;;;;;;4840959;29;20480;-77
2021/12/30 10:33:31;;;;;;;18.27;8.80;;;-6.90;99.90;;;;;;4842365;29;20102;-78
2021/12/30 10:36:01;;;;;;;16.05;8.25;;;-6.90;99.90;;;;;;4837488;29;20061;-80
2021/12/30 10:38:32;;;;;;;14.65;7.78;;;-6.90;99.90;;;;;;4841709;29;20515;-79
2021/12/30 10:41:04;;;;;;;15.20;7.97;;;-6.90;99.90;;;;;;4838973;29;20435;-80
2021/12/30 10:43:38;;;;;;;16.00;7.68;;;-6.80;99.90;;;;;;4842908;29;20487;-77
2021/12/30 10:46:14;;;;;;;19.10;7.30;;;-6.70;99.90;;;;;;4839330;29;20118;-78
2021/12/30 10:49:04;;;;;;;16.20;8.73;;;-6.60;99.90;;;;;;4850216;29;20518;-77
2021/12/30 10:51:43;;;;;;;17.70;8.88;;;-6.60;99.90;;;;;;4838167;29;20447;-79
2021/12/30 10:54:18;;;;;;;16.08;7.57;;;-6.60;99.90;;;;;;4838054;29;20055;-76
2021/12/30 10:57:48;;;;;;;17.35;8.23;;;-6.60;99.90;;;;;;4834674;29;20134;-79
2021/12/30 11:01:32;;;;;;;20.10;9.00;;;-6.60;99.90;;;;;;4787776;29;20207;-80
2021/12/30 11:04:32;;;;;;;;;;;;;;;;;;;;;
2021/12/30 11:08:04;;;;;;;15.07;7.50;;;-6.40;99.90;;;;;;4849945;29;20080;-80
2021/12/30 11:10:58;;;;;;;16.73;7.78;;;-6.30;99.90;;;;;;4820519;29;20081;-76
2021/12/30 11:14:29;;;;;;;15.10;6.70;;;-6.20;99.90;;;;;;4817682;29;20057;-78
2021/12/30 11:17:54;;;;;;;14.07;6.55;;;-6.10;99.90;;;;;;4815058;29;20524;-81
2021/12/30 11:21:41;;;;;;;;;;;;;;;;;;;;;
2021/12/30 11:24:52;;;;;;;;;;;;;;;;;;;;;
2021/12/30 11:27:52;;;;;;;;;;;;;;;;;;;;;
2021/12/30 11:42:19;;;;;;;13.77;7.07;;;-6.60;99.90;;;;;;4779239;29;20158;-77
2021/12/30 11:48:48;;;;;;;;;;;-6.90;99.90;;;;;;4811108;29;20054;-77
2021/12/30 11:51:29;;;;;;;15.43;6.90;;;-7.00;99.90;;;;;;4846153;24;20374;-76
2021/12/30 11:54:36;;;;;;;15.70;7.07;;;-7.00;99.90;;;;;;4843335;29;20085;-76
2021/12/30 11:57:43;;;;;;;14.80;7.05;;;-7.00;99.90;;;;;;4817123;29;20141;-76
2021/12/30 12:00:40;;;;;;;13.88;7.15;;;-7.10;99.90;;;;;;4819967;29;20081;-77
2021/12/30 12:03:34;;;;;;;15.52;7.85;;;-7.10;99.90;;;;;;4821161;29;20064;-80
2021/12/30 12:06:42;;;;;;;21.15;8.65;;;-7.10;99.90;;;;;;4822218;29;20520;-79
2021/12/30 12:09:16;;;;;;;15.70;8.95;;;-7.00;99.90;;;;;;4837330;29;20062;-78
2021/12/30 12:11:55;;;;;;;17.63;7.00;;;-6.90;99.90;;;;;;4840140;29;20050;-78
2021/12/30 12:14:59;;;;;;;17.80;8.32;;;-6.90;99.90;;;;;;4849946;29;20148;-78
2021/12/30 12:17:45;;;;;;;13.98;6.93;;;-6.90;99.90;;;;;;4852945;29;20461;-76
2021/12/30 12:20:28;;;;;;;13.00;6.68;;;-7.00;99.90;;;;;;4837625;29;20226;-75
2021/12/30 12:23:42;;;;;;;14.50;8.07;;;-7.00;99.90;;;;;;4823195;29;20556;-75
2021/12/30 12:27:05;;;;;;;21.23;8.32;;;-7.10;99.90;;;;;;4835303;29;20501;-76
2021/12/30 12:30:31;;;;;;;15.23;7.72;;;-7.20;99.90;;;;;;4837842;29;20498;-76
